createdAt,value
2018-06-09T00:00:29.115Z,0
2018-06-09T00:01:29.162Z,0
2018-06-09T00:02:29.179Z,0
2018-06-09T00:03:29.500Z,0
2018-06-09T00:04:29.226Z,0
2018-06-09T00:05:29.052Z,0
2018-06-09T00:06:44.208Z,0
2018-06-09T00:08:29.593Z,0
2018-06-09T00:09:29.654Z,0
2018-06-09T00:10:29.683Z,0
2018-06-09T00:11:29.424Z,0
2018-06-09T00:12:29.692Z,0
2018-06-09T00:13:29.749Z,0
2018-06-09T00:14:44.425Z,0
2018-06-09T00:15:29.758Z,0
2018-06-09T00:16:29.854Z,0
2018-06-09T00:17:44.466Z,0
2018-06-09T00:18:29.599Z,0
2018-06-09T00:19:29.645Z,0
2018-06-09T00:20:44.574Z,0
2018-06-09T00:21:29.686Z,0
2018-06-09T00:22:29.946Z,0
2018-06-09T00:23:44.373Z,0
2018-06-09T00:24:29.984Z,0
2018-06-09T00:25:30.050Z,0
2018-06-09T00:26:30.038Z,0
2018-06-09T00:27:44.761Z,0
2018-06-09T00:28:44.509Z,0
2018-06-09T00:29:29.865Z,0
2018-06-09T00:30:44.809Z,0
2018-06-09T00:31:30.190Z,0
2018-06-09T00:32:30.183Z,0
2018-06-09T00:33:30.251Z,0
2018-06-09T00:34:30.248Z,0
2018-06-09T00:35:30.029Z,0
2018-06-09T00:36:30.280Z,0
2018-06-09T00:37:30.095Z,0
2018-06-09T00:38:30.096Z,0
2018-06-09T00:39:29.608Z,0
2018-06-09T00:40:30.132Z,0
2018-06-09T00:41:30.413Z,0
2018-06-09T00:42:45.123Z,0
2018-06-09T00:43:30.460Z,0
2018-06-09T00:44:29.843Z,0
2018-06-09T00:45:45.187Z,0
2018-06-09T00:46:30.570Z,0
2018-06-09T00:47:30.559Z,0
2018-06-09T00:48:30.595Z,0
2018-06-09T00:49:30.657Z,0
2018-06-09T00:50:30.683Z,0
2018-06-09T00:51:30.708Z,0
2018-06-09T00:52:30.696Z,0
2018-06-09T00:53:45.399Z,0
2018-06-09T00:55:30.780Z,0
2018-06-09T00:56:45.462Z,0
2018-06-09T00:57:30.842Z,0
2018-06-09T00:58:30.577Z,0
2018-06-09T00:59:30.955Z,0
2018-06-09T01:00:30.906Z,0
2018-06-09T01:01:30.963Z,0
2018-06-09T01:02:45.599Z,0
2018-06-09T01:03:30.482Z,0
2018-06-09T01:04:30.986Z,0
2018-06-09T01:05:31.040Z,0
2018-06-09T01:06:31.049Z,0
2018-06-09T01:07:30.584Z,0
2018-06-09T01:08:31.132Z,0
2018-06-09T01:09:31.127Z,0
2018-06-09T01:10:31.153Z,0
2018-06-09T01:11:45.565Z,0
2018-06-09T01:13:45.885Z,0
2018-06-09T01:14:31.005Z,0
2018-06-09T01:15:31.310Z,0
2018-06-09T01:16:31.293Z,0
2018-06-09T01:17:46.004Z,0
2018-06-09T01:18:31.338Z,0
2018-06-09T01:19:31.236Z,0
2018-06-09T01:20:31.130Z,0
2018-06-09T01:21:31.471Z,0
2018-06-09T01:22:31.467Z,0
2018-06-09T01:23:31.494Z,0
2018-06-09T01:24:31.487Z,0
2018-06-09T01:26:46.197Z,0
2018-06-09T01:27:31.394Z,0
2018-06-09T01:28:31.325Z,0
2018-06-09T01:29:31.628Z,0
2018-06-09T01:30:31.665Z,0
2018-06-09T01:31:31.694Z,0
2018-06-09T01:32:31.467Z,0
2018-06-09T01:33:46.374Z,0
2018-06-09T01:34:31.781Z,0
2018-06-09T01:35:31.757Z,0
2018-06-09T01:36:31.816Z,0
2018-06-09T01:37:46.476Z,0
2018-06-09T01:38:31.617Z,0
2018-06-09T01:39:31.373Z,0
2018-06-09T01:41:31.941Z,0
2018-06-09T01:42:31.951Z,0
2018-06-09T01:43:32.018Z,0
2018-06-09T01:44:31.986Z,0
2018-06-09T01:45:32.108Z,0
2018-06-09T01:46:32.048Z,0
2018-06-09T01:47:32.102Z,0
2018-06-09T01:48:31.824Z,0
2018-06-09T01:49:46.764Z,0
2018-06-09T01:50:32.171Z,0
2018-06-09T01:51:31.909Z,0
2018-06-09T01:52:32.196Z,4
2018-06-09T01:53:32.248Z,4
2018-06-09T01:54:31.974Z,4
2018-06-09T01:55:32.303Z,0
2018-06-09T01:56:32.303Z,0
2018-06-09T01:57:32.345Z,0
2018-06-09T01:58:46.991Z,4
2018-06-09T01:59:32.365Z,4
2018-06-09T02:00:47.066Z,0
2018-06-09T02:01:32.162Z,4
2018-06-09T02:02:32.210Z,4
2018-06-09T02:03:32.457Z,0
2018-06-09T02:04:32.255Z,4
2018-06-09T02:05:46.905Z,4
2018-06-09T02:06:32.290Z,4
2018-06-09T02:07:47.233Z,4
2018-06-09T02:08:32.354Z,8
2018-06-09T02:09:32.484Z,8
2018-06-09T02:10:32.636Z,8
2018-06-09T02:11:31.895Z,12
2018-06-09T02:12:32.165Z,12
2018-06-09T02:13:32.486Z,12
2018-06-09T02:14:32.471Z,12
2018-06-09T02:15:47.446Z,12
2018-06-09T02:16:32.799Z,16
2018-06-09T02:17:32.311Z,16
2018-06-09T02:18:32.564Z,20
2018-06-09T02:19:32.371Z,24
2018-06-09T02:20:47.538Z,28
2018-06-09T02:21:32.926Z,32
2018-06-09T02:22:47.587Z,36
2018-06-09T02:23:32.716Z,40
2018-06-09T02:24:32.972Z,44
2018-06-09T02:25:32.785Z,52
2018-06-09T02:26:33.055Z,56
2018-06-09T02:27:32.550Z,64
2018-06-09T02:29:33.196Z,76
2018-06-09T02:30:33.170Z,84
2018-06-09T02:31:33.158Z,88
2018-06-09T02:32:32.946Z,92
2018-06-09T02:33:33.233Z,92
2018-06-09T02:34:32.970Z,96
2018-06-09T02:35:33.292Z,108
2018-06-09T02:36:33.316Z,112
2018-06-09T02:37:33.317Z,116
2018-06-09T02:38:33.335Z,128
2018-06-09T02:39:33.090Z,132
2018-06-09T02:40:33.146Z,144
2018-06-09T02:41:33.137Z,152
2018-06-09T02:42:33.213Z,160
2018-06-09T02:43:33.465Z,168
2018-06-09T02:44:33.512Z,184
2018-06-09T02:45:48.163Z,200
2018-06-09T02:46:48.212Z,216
2018-06-09T02:47:33.540Z,228
2018-06-09T02:48:33.658Z,240
2018-06-09T02:49:33.592Z,256
2018-06-09T02:50:33.646Z,272
2018-06-09T02:51:33.125Z,292
2018-06-09T02:52:48.358Z,316
2018-06-09T02:53:33.747Z,336
2018-06-09T02:54:48.379Z,372
2018-06-09T02:55:33.764Z,396
2018-06-09T02:56:33.771Z,428
2018-06-09T02:57:48.483Z,464
2018-06-09T02:58:33.822Z,488
2018-06-09T02:59:33.619Z,516
2018-06-09T03:00:33.632Z,552
2018-06-09T03:01:48.562Z,604
2018-06-09T03:02:33.947Z,644
2018-06-09T03:03:48.337Z,720
2018-06-09T03:04:33.735Z,772
2018-06-09T03:05:48.654Z,864
2018-06-09T03:06:34.053Z,924
2018-06-09T03:07:33.808Z,996
2018-06-09T03:09:03.383Z,1108
2018-06-09T03:09:34.124Z,1144
2018-06-09T03:10:34.123Z,1232
2018-06-09T03:11:48.556Z,1352
2018-06-09T03:12:34.169Z,1420
2018-06-09T03:13:34.226Z,1496
2018-06-09T03:14:34.213Z,1552
2018-06-09T03:15:48.917Z,1596
2018-06-09T03:16:34.014Z,1628
2018-06-09T03:17:34.326Z,1672
2018-06-09T03:18:34.301Z,1732
2018-06-09T03:19:34.114Z,1804
2018-06-09T03:20:33.835Z,1896
2018-06-09T03:21:34.392Z,2008
2018-06-09T03:22:34.424Z,2128
2018-06-09T03:24:49.141Z,2352
2018-06-09T03:25:49.147Z,2424
2018-06-09T03:26:34.553Z,2472
2018-06-09T03:27:49.185Z,2600
2018-06-09T03:28:34.554Z,2708
2018-06-09T03:29:34.335Z,2880
2018-06-09T03:30:34.164Z,3064
2018-06-09T03:31:34.157Z,3256
2018-06-09T03:32:34.747Z,3448
2018-06-09T03:33:34.457Z,3636
2018-06-09T03:34:34.701Z,3800
2018-06-09T03:35:34.756Z,3944
2018-06-09T03:36:34.503Z,4068
2018-06-09T03:38:34.845Z,4284
2018-06-09T03:39:34.567Z,4392
2018-06-09T03:40:49.539Z,4484
2018-06-09T03:41:34.368Z,4540
2018-06-09T03:42:34.655Z,4664
2018-06-09T03:43:35.124Z,4764
2018-06-09T03:44:34.432Z,4840
2018-06-09T03:45:34.984Z,4984
2018-06-09T03:46:34.754Z,5108
2018-06-09T03:48:35.089Z,5236
2018-06-09T03:49:35.072Z,5336
2018-06-09T03:50:35.346Z,5424
2018-06-09T03:51:35.116Z,5468
2018-06-09T03:52:49.834Z,5424
2018-06-09T03:53:35.166Z,5440
2018-06-09T03:54:35.240Z,5468
2018-06-09T03:55:49.908Z,6008
2018-06-09T03:56:35.002Z,5944
2018-06-09T03:57:35.278Z,5792
2018-06-09T03:58:49.696Z,5764
2018-06-09T03:59:50.013Z,5664
2018-06-09T04:00:50.009Z,5716
2018-06-09T04:01:35.411Z,5972
2018-06-09T04:02:50.085Z,6772
2018-06-09T04:03:35.420Z,6500
2018-06-09T04:04:35.482Z,6284
2018-06-09T04:05:35.471Z,6724
2018-06-09T04:06:50.169Z,7024
2018-06-09T04:07:35.532Z,7268
2018-06-09T04:08:35.590Z,8876
2018-06-09T04:09:35.309Z,18304
2018-06-09T04:10:35.370Z,26656
2018-06-09T04:11:35.373Z,26144
2018-06-09T04:12:35.430Z,25632
2018-06-09T04:13:35.413Z,26528
2018-06-09T04:14:35.477Z,26944
2018-06-09T04:15:50.123Z,27520
2018-06-09T04:16:35.778Z,28480
2018-06-09T04:17:35.782Z,29760
2018-06-09T04:18:35.841Z,31680
2018-06-09T04:19:50.514Z,33024
2018-06-09T04:20:35.874Z,32320
2018-06-09T04:21:35.903Z,33216
2018-06-09T04:22:35.898Z,34016
2018-06-09T04:23:50.607Z,37728
2018-06-09T04:24:35.978Z,39424
2018-06-09T04:25:35.770Z,35456
2018-06-09T04:27:50.442Z,41280
2018-06-09T04:28:50.767Z,40992
2018-06-09T04:29:35.845Z,38464
2018-06-09T04:30:36.129Z,41664
2018-06-09T04:31:36.176Z,41600
2018-06-09T04:32:36.212Z,42656
2018-06-09T04:33:36.352Z,44480
2018-06-09T04:34:36.242Z,43840
2018-06-09T04:35:36.309Z,44192
2018-06-09T04:36:36.333Z,44992
2018-06-09T04:37:36.088Z,45024
2018-06-09T04:39:35.873Z,48128
2018-06-09T04:40:36.422Z,49024
2018-06-09T04:41:36.217Z,48608
2018-06-09T04:42:36.253Z,48736
2018-06-09T04:43:50.941Z,48768
2018-06-09T04:45:36.355Z,53760
2018-06-09T04:46:36.603Z,54720
2018-06-09T04:47:36.656Z,55936
2018-06-09T04:48:51.345Z,55136
2018-06-09T04:49:36.733Z,54144
2018-06-09T04:50:36.517Z,58464
2018-06-09T04:51:36.610Z,58144
2018-06-09T04:52:36.829Z,56224
2018-06-09T04:53:36.934Z,58976
2018-06-09T04:54:36.911Z,59424
2018-06-09T04:55:36.912Z,58944
2018-06-09T04:56:36.977Z,58784
2018-06-09T04:57:36.726Z,60704
2018-06-09T04:58:37.101Z,62560
2018-06-09T04:59:51.691Z,63808
2018-06-09T05:00:36.803Z,65408
2018-06-09T05:01:51.265Z,64608
2018-06-09T05:02:37.139Z,63328
2018-06-09T05:03:37.203Z,62464
2018-06-09T05:04:51.876Z,60960
2018-06-09T05:05:36.981Z,62528
2018-06-09T05:06:51.958Z,64096
2018-06-09T05:07:51.736Z,65440
2018-06-09T05:08:51.994Z,67072
2018-06-09T05:09:51.801Z,66784
2018-06-09T05:10:37.402Z,67392
2018-06-09T05:11:37.438Z,68192
2018-06-09T05:12:37.497Z,65888
2018-06-09T05:13:37.534Z,68096
2018-06-09T05:14:37.583Z,67392
2018-06-09T05:15:52.237Z,70176
2018-06-09T05:16:37.394Z,42912
2018-06-09T05:17:37.643Z,63360
2018-06-09T05:18:52.359Z,74400
2018-06-09T05:19:37.480Z,72544
2018-06-09T05:20:37.782Z,71392
2018-06-09T05:21:52.484Z,70080
2018-06-09T05:23:37.633Z,69600
2018-06-09T05:24:37.896Z,70432
2018-06-09T05:25:37.943Z,71968
2018-06-09T05:26:52.638Z,72768
2018-06-09T05:27:38.027Z,72480
2018-06-09T05:28:38.080Z,71968
2018-06-09T05:29:38.071Z,71616
2018-06-09T05:31:37.624Z,70816
2018-06-09T05:32:37.944Z,72896
2018-06-09T05:33:37.720Z,74400
2018-06-09T05:36:38.097Z,68544
2018-06-09T05:37:38.096Z,65600
2018-06-09T05:38:37.906Z,69184
2018-06-09T05:39:38.173Z,68640
2018-06-09T05:40:37.989Z,70144
2018-06-09T05:41:38.493Z,70848
2018-06-09T05:42:38.281Z,74176
2018-06-09T05:43:53.258Z,70688
2018-06-09T05:45:38.689Z,75296
2018-06-09T05:46:38.692Z,74976
2018-06-09T05:47:38.770Z,77152
2018-06-09T05:48:53.411Z,73152
2018-06-09T05:50:38.860Z,67680
2018-06-09T05:51:38.874Z,68576
2018-06-09T05:52:38.937Z,67808
2018-06-09T05:53:38.930Z,68416
2018-06-09T05:54:39.007Z,74048
2018-06-09T05:56:38.796Z,77856
2018-06-09T05:57:53.752Z,75072
2018-06-09T05:58:39.141Z,73632
2018-06-09T05:59:39.143Z,77216
2018-06-09T06:00:39.228Z,79744
2018-06-09T06:01:53.890Z,77024
2018-06-09T06:02:53.956Z,74304
2018-06-09T06:03:39.325Z,73344
2018-06-09T06:04:54.013Z,74784
2018-06-09T06:05:39.377Z,74592
2018-06-09T06:06:39.407Z,72800
2018-06-09T06:07:39.315Z,74112
2018-06-09T06:08:39.507Z,75104
2018-06-09T06:09:39.564Z,73856
2018-06-09T06:10:39.572Z,75296
2018-06-09T06:11:39.636Z,78368
2018-06-09T06:12:39.626Z,77088
2018-06-09T06:14:39.450Z,70912
2018-06-09T06:15:39.746Z,73600
2018-06-09T06:16:39.808Z,68992
2018-06-09T06:17:39.582Z,67360
2018-06-09T06:18:54.626Z,64448
2018-06-09T06:19:39.924Z,62336
2018-06-09T06:20:39.667Z,61504
2018-06-09T06:21:39.737Z,65504
2018-06-09T06:22:39.993Z,66112
2018-06-09T06:24:40.100Z,67488
2018-06-09T06:25:40.121Z,68160
2018-06-09T06:26:54.815Z,72256
2018-06-09T06:27:39.950Z,72256
2018-06-09T06:28:40.209Z,73184
2018-06-09T06:29:40.288Z,73088
2018-06-09T06:30:40.310Z,72320
2018-06-09T06:31:40.338Z,72032
2018-06-09T06:32:40.429Z,74208
2018-06-09T06:33:40.394Z,74784
2018-06-09T06:34:55.124Z,73408
2018-06-09T06:35:40.225Z,72320
2018-06-09T06:36:40.285Z,71744
2018-06-09T06:37:55.239Z,75456
2018-06-09T06:38:40.576Z,78592
2018-06-09T06:39:40.652Z,75808
2018-06-09T06:40:40.391Z,75232
2018-06-09T06:41:40.730Z,74592
2018-06-09T06:42:40.467Z,78208
2018-06-09T06:43:55.461Z,80864
2018-06-09T06:44:40.575Z,66528
2018-06-09T06:45:40.872Z,66240
2018-06-09T06:46:40.894Z,76736
2018-06-09T06:47:40.915Z,69632
2018-06-09T06:48:40.999Z,74208
2018-06-09T06:49:40.746Z,82944
2018-06-09T06:50:55.460Z,86720
2018-06-09T06:51:41.115Z,86496
2018-06-09T06:52:55.799Z,83712
2018-06-09T06:53:41.144Z,82816
2018-06-09T06:54:41.216Z,80256
2018-06-09T06:55:41.235Z,80960
2018-06-09T06:56:41.437Z,81280
2018-06-09T06:57:41.030Z,81888
2018-06-09T06:58:41.106Z,80320
2018-06-09T06:59:41.383Z,79840
2018-06-09T07:00:56.100Z,78112
2018-06-09T07:01:40.935Z,76000
2018-06-09T07:02:41.264Z,73888
2018-06-09T07:03:41.259Z,73760
2018-06-09T07:04:41.375Z,72352
2018-06-09T07:05:56.276Z,73536
2018-06-09T07:06:41.665Z,70720
2018-06-09T07:07:41.454Z,71008
2018-06-09T07:08:41.458Z,72864
2018-06-09T07:09:56.446Z,75520
2018-06-09T07:10:41.791Z,77664
2018-06-09T07:11:41.594Z,78048
2018-06-09T07:12:41.867Z,74272
2018-06-09T07:13:42.055Z,73664
2018-06-09T07:14:41.970Z,69888
2018-06-09T07:15:56.394Z,75616
2018-06-09T07:17:56.729Z,68896
2018-06-09T07:18:42.214Z,69568
2018-06-09T07:19:42.158Z,72576
2018-06-09T07:20:42.221Z,72544
2018-06-09T07:21:42.216Z,74464
2018-06-09T07:22:42.291Z,72864
2018-06-09T07:23:42.307Z,72992
2018-06-09T07:24:42.111Z,71904
2018-06-09T07:25:42.380Z,70112
2018-06-09T07:26:42.454Z,69952
2018-06-09T07:27:42.443Z,72352
2018-06-09T07:29:42.592Z,72928
2018-06-09T07:30:42.609Z,72096
2018-06-09T07:31:42.641Z,72000
2018-06-09T07:32:42.659Z,73536
2018-06-09T07:33:57.367Z,72736
2018-06-09T07:34:42.462Z,72576
2018-06-09T07:35:42.545Z,74496
2018-06-09T07:36:42.288Z,75200
2018-06-09T07:37:57.530Z,73984
2018-06-09T07:38:42.915Z,72736
2018-06-09T07:39:42.932Z,72448
2018-06-09T07:40:42.977Z,71424
2018-06-09T07:42:43.060Z,73184
2018-06-09T07:44:42.905Z,66560
2018-06-09T07:45:42.664Z,68160
2018-06-09T07:46:43.208Z,71040
2018-06-09T07:47:43.251Z,68576
2018-06-09T07:48:43.050Z,66880
2018-06-09T07:49:43.051Z,68864
2018-06-09T07:50:43.370Z,68288
2018-06-09T07:51:43.383Z,67328
2018-06-09T07:52:43.465Z,68512
2018-06-09T07:53:58.123Z,66880
2018-06-09T07:54:43.286Z,66208
2018-06-09T07:55:43.578Z,66496
2018-06-09T07:57:43.378Z,69216
2018-06-09T07:58:43.652Z,67872
2018-06-09T07:59:43.991Z,68000
2018-06-09T08:00:43.593Z,68800
2018-06-09T08:01:43.557Z,65408
2018-06-09T08:04:43.889Z,64608
2018-06-09T08:05:43.682Z,61856
2018-06-09T08:06:43.993Z,63168
2018-06-09T08:07:43.667Z,64896
2018-06-09T08:08:43.572Z,63168
2018-06-09T08:09:58.789Z,61920
2018-06-09T08:10:44.167Z,61888
2018-06-09T08:11:43.905Z,61280
2018-06-09T08:12:44.231Z,61408
2018-06-09T08:13:43.726Z,63648
2018-06-09T08:14:44.328Z,61152
2018-06-09T08:15:44.338Z,60480
2018-06-09T08:16:44.117Z,65120
2018-06-09T08:17:44.441Z,64448
2018-06-09T08:18:44.475Z,62624
2018-06-09T08:20:44.279Z,60192
2018-06-09T08:21:44.557Z,58400
2018-06-09T08:22:44.640Z,57504
2018-06-09T08:23:44.637Z,57248
2018-06-09T08:24:44.453Z,59168
2018-06-09T08:25:59.386Z,60288
2018-06-09T08:26:44.829Z,58816
2018-06-09T08:27:44.269Z,59840
2018-06-09T08:28:44.844Z,58656
2018-06-09T08:29:44.632Z,58912
2018-06-09T08:30:44.932Z,55168
2018-06-09T08:31:44.983Z,53568
2018-06-09T08:32:44.984Z,53440
2018-06-09T08:33:45.053Z,52192
2018-06-09T08:34:44.541Z,51168
2018-06-09T08:35:59.906Z,49088
2018-06-09T08:36:45.236Z,50336
2018-06-09T08:37:59.868Z,45568
2018-06-09T08:38:59.645Z,32672
2018-06-09T08:39:45.008Z,24448
2018-06-09T08:40:59.980Z,21056
2018-06-09T08:41:45.347Z,20608
2018-06-09T08:42:45.383Z,20352
2018-06-09T08:43:44.929Z,20128
2018-06-09T08:44:45.450Z,19936
2018-06-09T08:45:45.503Z,19808
2018-06-09T08:47:45.589Z,19584
2018-06-09T08:48:45.643Z,19488
2018-06-09T08:49:45.384Z,19328
2018-06-09T08:50:45.720Z,19264
2018-06-09T08:51:45.709Z,19168
2018-06-09T08:52:45.783Z,19072
2018-06-09T08:53:45.801Z,18880
2018-06-09T08:54:45.845Z,18752
2018-06-09T08:55:45.642Z,18688
2018-06-09T08:56:45.664Z,18592
2018-06-09T08:57:45.951Z,18528
2018-06-09T08:58:45.977Z,18464
2018-06-09T08:59:46.054Z,18336
2018-06-09T09:00:46.082Z,18336
2018-06-09T09:01:46.143Z,18272
2018-06-09T09:02:46.129Z,18144
2018-06-09T09:03:46.210Z,18112
2018-06-09T09:05:00.871Z,18048
2018-06-09T09:05:46.262Z,17984
2018-06-09T09:06:45.778Z,17824
2018-06-09T09:07:46.362Z,17856
2018-06-09T09:08:46.358Z,17792
2018-06-09T09:09:46.421Z,17728
2018-06-09T09:10:45.944Z,17484
2018-06-09T09:13:15.835Z,17352
2018-06-09T09:13:46.574Z,17308
2018-06-09T09:15:01.244Z,17240
2018-06-09T09:16:46.437Z,17104
2018-06-09T09:17:46.700Z,17044
2018-06-09T09:18:46.777Z,17044
2018-06-09T09:20:01.457Z,16996
2018-06-09T09:20:46.567Z,16988
2018-06-09T09:21:46.617Z,16904
2018-06-09T09:22:46.618Z,16868
2018-06-09T09:24:01.611Z,16828
2018-06-09T09:24:46.955Z,16820
2018-06-09T09:25:47.031Z,16756
2018-06-09T09:26:47.052Z,16712
2018-06-09T09:27:47.092Z,16728
2018-06-09T09:29:01.771Z,16696
2018-06-09T09:29:46.877Z,16660
2018-06-09T09:30:46.955Z,16604
2018-06-09T09:31:46.968Z,16600
2018-06-09T09:32:47.293Z,16572
2018-06-09T09:33:47.285Z,16552
2018-06-09T09:34:47.421Z,16540
2018-06-09T09:35:47.382Z,16464
2018-06-09T09:36:47.410Z,16336
2018-06-09T09:38:02.117Z,16232
2018-06-09T09:38:47.222Z,16216
2018-06-09T09:39:47.508Z,16164
2018-06-09T09:41:02.235Z,16104
2018-06-09T09:42:02.246Z,16076
2018-06-09T09:43:47.693Z,16044
2018-06-09T09:45:02.354Z,16012
2018-06-09T09:45:47.501Z,15988
2018-06-09T09:46:47.505Z,16012
2018-06-09T09:47:47.556Z,15976
2018-06-09T09:48:47.588Z,15984
2018-06-09T09:49:47.918Z,15956
2018-06-09T09:50:47.651Z,15876
2018-06-09T09:51:47.706Z,15852
2018-06-09T09:52:48.013Z,15884
2018-06-09T09:53:47.807Z,15920
2018-06-09T09:54:48.070Z,15920
2018-06-09T09:55:48.116Z,15928
2018-06-09T09:56:48.122Z,15896
2018-06-09T09:57:47.946Z,15864
2018-06-09T09:58:48.199Z,15744
2018-06-09T09:59:48.278Z,15620
2018-06-09T10:01:02.956Z,15436
2018-06-09T10:01:48.333Z,15312
2018-06-09T10:02:48.102Z,15212
2018-06-09T10:03:48.152Z,15160
2018-06-09T10:04:48.681Z,15100
2018-06-09T10:05:48.492Z,15044
2018-06-09T10:06:48.525Z,15036
2018-06-09T10:08:03.204Z,14968
2018-06-09T10:08:48.053Z,14924
2018-06-09T10:09:48.736Z,14876
2018-06-09T10:10:48.669Z,14684
2018-06-09T10:12:48.729Z,14372
2018-06-09T10:13:48.759Z,14296
2018-06-09T10:14:48.819Z,14168
2018-06-09T10:16:03.580Z,14084
2018-06-09T10:16:48.628Z,14032
2018-06-09T10:17:48.907Z,13996
2018-06-09T10:19:03.596Z,13892
2018-06-09T10:19:48.962Z,13880
2018-06-09T10:20:48.990Z,13816
2018-06-09T10:21:48.801Z,13788
2018-06-09T10:22:49.083Z,13772
2018-06-09T10:23:49.140Z,13752
2018-06-09T10:24:49.135Z,13704
2018-06-09T10:26:49.200Z,13584
2018-06-09T10:27:49.256Z,13396
2018-06-09T10:28:49.283Z,13368
2018-06-09T10:29:49.357Z,13340
2018-06-09T10:30:49.344Z,13304
2018-06-09T10:31:49.572Z,13252
2018-06-09T10:32:49.630Z,13172
2018-06-09T10:33:49.496Z,13112
2018-06-09T10:34:49.480Z,13060
2018-06-09T10:35:49.556Z,13016
2018-06-09T10:36:49.036Z,12992
2018-06-09T10:37:49.619Z,13024
2018-06-09T10:40:49.734Z,12880
2018-06-09T10:42:04.390Z,12876
2018-06-09T10:43:04.198Z,12812
2018-06-09T10:43:49.818Z,12724
2018-06-09T10:44:49.594Z,12688
2018-06-09T10:45:49.886Z,12644
2018-06-09T10:46:50.047Z,12660
2018-06-09T10:48:04.379Z,12656
2018-06-09T10:49:04.635Z,12620
2018-06-09T10:49:50.044Z,12592
2018-06-09T10:50:50.038Z,12548
2018-06-09T10:51:50.108Z,12552
2018-06-09T10:52:49.850Z,12468
2018-06-09T10:53:49.927Z,12408
2018-06-09T10:54:50.205Z,12328
2018-06-09T10:55:50.246Z,12348
2018-06-09T10:56:50.258Z,12340
2018-06-09T10:57:50.057Z,12336
2018-06-09T10:59:04.992Z,12232
2018-06-09T11:00:04.781Z,12132
2018-06-09T11:00:50.392Z,12080
2018-06-09T11:01:50.198Z,11988
2018-06-09T11:02:50.556Z,11928
2018-06-09T11:04:04.929Z,11572
2018-06-09T11:05:04.954Z,11868
2018-06-09T11:05:50.556Z,11924
2018-06-09T11:06:50.629Z,11900
2018-06-09T11:07:50.623Z,11852
2018-06-09T11:08:50.689Z,11784
2018-06-09T11:09:50.690Z,11720
2018-06-09T11:10:50.769Z,11648
2018-06-09T11:12:05.448Z,11580
2018-06-09T11:12:50.808Z,11540
2018-06-09T11:14:50.860Z,11216
2018-06-09T11:15:50.946Z,11100
2018-06-09T11:16:50.938Z,10936
2018-06-09T11:17:51.013Z,10732
2018-06-09T11:18:51.114Z,10548
2018-06-09T11:20:05.728Z,10372
2018-06-09T11:20:50.902Z,10224
2018-06-09T11:21:50.844Z,10036
2018-06-09T11:22:50.899Z,9884
2018-06-09T11:24:05.946Z,9760
2018-06-09T11:25:51.254Z,9744
2018-06-09T11:26:51.277Z,9684
2018-06-09T11:27:51.077Z,9628
2018-06-09T11:28:51.377Z,9476
2018-06-09T11:30:05.774Z,9384
2018-06-09T11:30:51.437Z,9264
2018-06-09T11:31:51.477Z,9236
2018-06-09T11:32:51.520Z,9244
2018-06-09T11:33:51.508Z,9260
2018-06-09T11:34:51.590Z,9068
2018-06-09T11:36:51.604Z,8924
2018-06-09T11:37:51.668Z,8976
2018-06-09T11:38:51.682Z,8988
2018-06-09T11:39:51.459Z,8836
2018-06-09T11:41:06.408Z,8676
2018-06-09T11:41:51.777Z,8656
2018-06-09T11:44:51.345Z,8480
2018-06-09T11:45:51.948Z,8512
2018-06-09T11:47:51.457Z,8856
2018-06-09T11:48:52.010Z,8752
2018-06-09T11:49:51.767Z,8520
2018-06-09T11:51:06.811Z,8316
2018-06-09T11:52:06.755Z,8172
2018-06-09T11:52:52.004Z,8176
2018-06-09T11:53:52.183Z,8176
2018-06-09T11:55:06.869Z,8192
2018-06-09T11:55:52.009Z,8264
2018-06-09T11:57:51.772Z,8492
2018-06-09T11:58:52.372Z,8800
2018-06-09T12:00:07.018Z,9052
2018-06-09T12:00:52.462Z,9032
2018-06-09T12:01:52.306Z,8940
2018-06-09T12:03:06.889Z,8704
2018-06-09T12:04:06.918Z,8256
2018-06-09T12:04:52.266Z,7892
2018-06-09T12:06:07.271Z,7700
2018-06-09T12:06:52.587Z,7644
2018-06-09T12:07:52.372Z,7660
2018-06-09T12:08:52.405Z,7664
2018-06-09T12:09:52.724Z,7780
2018-06-09T12:10:52.754Z,7896
2018-06-09T12:11:52.509Z,8020
2018-06-09T12:12:52.794Z,8180
2018-06-09T12:14:07.481Z,8316
2018-06-09T12:15:07.540Z,8368
2018-06-09T12:15:52.894Z,8336
2018-06-09T12:16:52.959Z,8280
2018-06-09T12:17:52.993Z,8340
2018-06-09T12:18:53.001Z,8364
2018-06-09T12:19:52.765Z,8356
2018-06-09T12:20:53.083Z,8372
2018-06-09T12:21:52.818Z,8380
2018-06-09T12:23:53.141Z,8400
2018-06-09T12:25:07.839Z,8272
2018-06-09T12:25:53.252Z,8304
2018-06-09T12:27:07.906Z,8184
2018-06-09T12:28:07.976Z,8176
2018-06-09T12:28:53.357Z,8212
2018-06-09T12:29:53.353Z,8224
2018-06-09T12:30:53.134Z,8304
2018-06-09T12:31:53.406Z,8416
2018-06-09T12:32:53.265Z,8508
2018-06-09T12:33:53.485Z,8460
2018-06-09T12:34:53.281Z,8416
2018-06-09T12:35:53.277Z,8368
2018-06-09T12:36:53.356Z,8308
2018-06-09T12:37:53.599Z,8244
2018-06-09T12:39:22.980Z,8112
2018-06-09T12:39:53.430Z,8068
2018-06-09T12:40:53.725Z,8044
2018-06-09T12:41:53.524Z,7980
2018-06-09T12:42:53.607Z,7888
2018-06-09T12:43:53.833Z,7848
2018-06-09T12:44:53.821Z,7848
2018-06-09T12:45:53.114Z,7956
2018-06-09T12:46:53.634Z,8060
2018-06-09T12:47:53.949Z,8188
2018-06-09T12:48:53.936Z,8312
2018-06-09T12:49:53.986Z,8364
2018-06-09T12:50:54.066Z,8352
2018-06-09T12:51:53.820Z,8288
2018-06-09T12:52:54.113Z,8244
2018-06-09T12:53:54.113Z,8228
2018-06-09T12:55:23.477Z,8180
2018-06-09T12:57:54.405Z,8272
2018-06-09T12:58:54.324Z,8376
2018-06-09T12:59:54.065Z,8328
2018-06-09T13:01:08.760Z,8196
2018-06-09T13:02:54.444Z,8112
2018-06-09T13:03:53.974Z,8048
2018-06-09T13:04:54.533Z,5668
2018-06-09T13:06:09.494Z,5504
2018-06-09T13:06:54.290Z,5480
2018-06-09T13:07:54.326Z,5444
2018-06-09T13:08:54.183Z,5408
2018-06-09T13:09:54.785Z,5428
2018-06-09T13:11:09.331Z,5536
2018-06-09T13:11:54.739Z,6424
2018-06-09T13:12:54.743Z,8040
2018-06-09T13:13:54.804Z,8096
2018-06-09T13:14:54.552Z,8152
2018-06-09T13:15:54.852Z,8252
2018-06-09T13:16:54.627Z,8236
2018-06-09T13:17:54.628Z,8188
2018-06-09T13:18:54.669Z,8216
2018-06-09T13:19:54.720Z,8220
2018-06-09T13:21:09.666Z,8108
2018-06-09T13:23:55.084Z,7772
2018-06-09T13:24:55.289Z,7628
2018-06-09T13:26:09.549Z,7572
2018-06-09T13:26:55.206Z,7540
2018-06-09T13:27:55.204Z,7564
2018-06-09T13:28:55.296Z,7572
2018-06-09T13:29:55.289Z,7388
2018-06-09T13:30:55.329Z,5212
2018-06-09T13:31:55.395Z,5352
2018-06-09T13:32:55.413Z,7508
2018-06-09T13:34:09.814Z,5192
2018-06-09T13:36:10.006Z,5080
2018-06-09T13:36:55.517Z,5084
2018-06-09T13:38:55.587Z,5280
2018-06-09T13:40:10.123Z,5440
2018-06-09T13:40:55.375Z,5620
2018-06-09T13:41:55.694Z,8040
2018-06-09T13:43:10.353Z,8188
2018-06-09T13:43:55.745Z,8228
2018-06-09T13:45:10.429Z,8224
2018-06-09T13:45:55.534Z,8172
2018-06-09T13:46:56.226Z,8152
2018-06-09T13:47:55.625Z,8088
2018-06-09T13:48:55.893Z,8108
2018-06-09T13:50:10.602Z,8176
2018-06-09T13:50:55.954Z,8224
2018-06-09T13:52:10.405Z,8244
2018-06-09T13:52:55.743Z,8152
2018-06-09T13:53:55.782Z,8040
2018-06-09T13:55:10.491Z,7728
2018-06-09T13:55:56.117Z,7512
2018-06-09T13:56:56.172Z,5160
2018-06-09T13:58:10.822Z,5128
2018-06-09T13:59:10.894Z,6512
2018-06-09T13:59:56.221Z,6712
2018-06-09T14:01:10.916Z,7432
2018-06-09T14:01:56.325Z,7440
2018-06-09T14:03:56.391Z,7376
2018-06-09T14:04:55.881Z,7332
2018-06-09T14:06:10.857Z,7280
2018-06-09T14:06:56.764Z,7248
2018-06-09T14:07:56.484Z,7196
2018-06-09T14:09:11.205Z,7108
2018-06-09T14:09:56.303Z,7060
2018-06-09T14:10:56.798Z,7016
2018-06-09T14:11:56.649Z,7004
2018-06-09T14:12:56.733Z,7016
2018-06-09T14:14:11.359Z,7048